sensor_id;sensor_type;location;lat;lon;timestamp;P1;durP1;ratioP1;P2;durP2;ratioP2
60432;SDS011;46286;48.098;11.590;2023-02-28T00:00:22;5.25;;;3.42;;
60432;SDS011;46286;48.098;11.590;2023-02-28T00:03:09;5.50;;;2.80;;
60432;SDS011;46286;48.098;11.590;2023-02-28T00:05:34;4.45;;;2.65;;
60432;SDS011;46286;48.098;11.590;2023-02-28T00:08:00;5.72;;;3.08;;
60432;SDS011;46286;48.098;11.590;2023-02-28T00:10:26;10.13;;;3.58;;
60432;SDS011;46286;48.098;11.590;2023-02-28T00:12:55;5.00;;;2.85;;
60432;SDS011;46286;48.098;11.590;2023-02-28T00:15:22;6.72;;;3.20;;
60432;SDS011;46286;48.098;11.590;2023-02-28T00:17:49;7.97;;;3.08;;
60432;SDS011;46286;48.098;11.590;2023-02-28T00:20:15;8.40;;;2.80;;
60432;SDS011;46286;48.098;11.590;2023-02-28T00:22:42;8.30;;;3.60;;
60432;SDS011;46286;48.098;11.590;2023-02-28T00:25:10;6.68;;;3.22;;
60432;SDS011;46286;48.098;11.590;2023-02-28T00:27:39;8.27;;;3.40;;
60432;SDS011;46286;48.098;11.590;2023-02-28T00:30:05;5.60;;;3.00;;
60432;SDS011;46286;48.098;11.590;2023-02-28T00:32:33;5.97;;;3.03;;
60432;SDS011;46286;48.098;11.590;2023-02-28T00:34:59;6.93;;;3.40;;
60432;SDS011;46286;48.098;11.590;2023-02-28T00:37:25;7.80;;;3.20;;
60432;SDS011;46286;48.098;11.590;2023-02-28T00:39:51;6.22;;;3.15;;
60432;SDS011;46286;48.098;11.590;2023-02-28T00:42:17;5.85;;;2.63;;
60432;SDS011;46286;48.098;11.590;2023-02-28T00:44:42;6.13;;;3.15;;
60432;SDS011;46286;48.098;11.590;2023-02-28T00:47:08;9.07;;;3.35;;
60432;SDS011;46286;48.098;11.590;2023-02-28T00:49:33;5.85;;;3.00;;
60432;SDS011;46286;48.098;11.590;2023-02-28T00:51:59;7.47;;;3.30;;
60432;SDS011;46286;48.098;11.590;2023-02-28T00:54:25;6.22;;;3.40;;
60432;SDS011;46286;48.098;11.590;2023-02-28T00:56:50;7.35;;;3.40;;
60432;SDS011;46286;48.098;11.590;2023-02-28T00:59:16;7.95;;;3.22;;
60432;SDS011;46286;48.098;11.590;2023-02-28T01:01:42;5.72;;;3.13;;
60432;SDS011;46286;48.098;11.590;2023-02-28T01:04:09;9.65;;;2.80;;
60432;SDS011;46286;48.098;11.590;2023-02-28T01:06:35;6.32;;;3.63;;
60432;SDS011;46286;48.098;11.590;2023-02-28T01:09:02;6.05;;;3.20;;
60432;SDS011;46286;48.098;11.590;2023-02-28T01:11:28;8.75;;;3.67;;
60432;SDS011;46286;48.098;11.590;2023-02-28T01:13:54;5.72;;;3.00;;
60432;SDS011;46286;48.098;11.590;2023-02-28T01:16:20;6.03;;;3.33;;
60432;SDS011;46286;48.098;11.590;2023-02-28T01:18:45;6.75;;;3.25;;
60432;SDS011;46286;48.098;11.590;2023-02-28T01:21:12;7.18;;;3.58;;
60432;SDS011;46286;48.098;11.590;2023-02-28T01:23:40;6.78;;;3.20;;
60432;SDS011;46286;48.098;11.590;2023-02-28T01:26:06;5.05;;;3.20;;
60432;SDS011;46286;48.098;11.590;2023-02-28T01:28:34;6.93;;;3.55;;
60432;SDS011;46286;48.098;11.590;2023-02-28T01:30:59;7.05;;;3.22;;
60432;SDS011;46286;48.098;11.590;2023-02-28T01:33:25;6.72;;;3.63;;
60432;SDS011;46286;48.098;11.590;2023-02-28T01:35:57;6.78;;;3.03;;
60432;SDS011;46286;48.098;11.590;2023-02-28T01:38:24;8.48;;;3.17;;
60432;SDS011;46286;48.098;11.590;2023-02-28T01:40:50;7.30;;;3.38;;
60432;SDS011;46286;48.098;11.590;2023-02-28T01:43:26;6.47;;;3.83;;
60432;SDS011;46286;48.098;11.590;2023-02-28T01:45:57;8.73;;;3.78;;
60432;SDS011;46286;48.098;11.590;2023-02-28T01:48:25;11.10;;;2.97;;
60432;SDS011;46286;48.098;11.590;2023-02-28T01:50:54;7.28;;;3.80;;
60432;SDS011;46286;48.098;11.590;2023-02-28T01:53:24;6.60;;;3.05;;
60432;SDS011;46286;48.098;11.590;2023-02-28T01:56:11;7.40;;;3.00;;
60432;SDS011;46286;48.098;11.590;2023-02-28T01:58:52;6.82;;;3.50;;
60432;SDS011;46286;48.098;11.590;2023-02-28T02:01:20;8.82;;;3.22;;
60432;SDS011;46286;48.098;11.590;2023-02-28T02:03:51;5.07;;;2.95;;
60432;SDS011;46286;48.098;11.590;2023-02-28T02:06:23;7.22;;;3.35;;
60432;SDS011;46286;48.098;11.590;2023-02-28T02:09:01;7.20;;;3.25;;
60432;SDS011;46286;48.098;11.590;2023-02-28T02:11:28;6.78;;;3.80;;
60432;SDS011;46286;48.098;11.590;2023-02-28T02:14:05;9.18;;;3.50;;
60432;SDS011;46286;48.098;11.590;2023-02-28T02:16:48;6.28;;;3.40;;
60432;SDS011;46286;48.098;11.590;2023-02-28T02:27:26;6.32;;;3.65;;
60432;SDS011;46286;48.098;11.590;2023-02-28T02:38:49;6.53;;;3.53;;
60432;SDS011;46286;48.098;11.590;2023-02-28T02:44:04;6.22;;;3.08;;
60432;SDS011;46286;48.098;11.590;2023-02-28T02:46:45;6.93;;;3.25;;
60432;SDS011;46286;48.098;11.590;2023-02-28T02:49:14;6.68;;;3.45;;
60432;SDS011;46286;48.098;11.590;2023-02-28T02:51:46;6.93;;;3.45;;
60432;SDS011;46286;48.098;11.590;2023-02-28T02:54:17;5.82;;;3.38;;
60432;SDS011;46286;48.098;11.590;2023-02-28T02:56:48;7.57;;;3.55;;
60432;SDS011;46286;48.098;11.590;2023-02-28T02:59:16;8.40;;;3.70;;
60432;SDS011;46286;48.098;11.590;2023-02-28T03:01:48;6.28;;;3.50;;
60432;SDS011;46286;48.098;11.590;2023-02-28T03:04:22;8.80;;;3.85;;
60432;SDS011;46286;48.098;11.590;2023-02-28T03:06:50;8.32;;;3.65;;
60432;SDS011;46286;48.098;11.590;2023-02-28T03:09:23;8.57;;;3.90;;
60432;SDS011;46286;48.098;11.590;2023-02-28T03:11:50;6.97;;;3.65;;
60432;SDS011;46286;48.098;11.590;2023-02-28T03:14:28;7.50;;;3.97;;
60432;SDS011;46286;48.098;11.590;2023-02-28T03:17:30;6.30;;;3.70;;
60432;SDS011;46286;48.098;11.590;2023-02-28T03:28:25;7.18;;;4.05;;
60432;SDS011;46286;48.098;11.590;2023-02-28T03:30:56;7.43;;;3.45;;
60432;SDS011;46286;48.098;11.590;2023-02-28T03:33:36;7.38;;;3.45;;
60432;SDS011;46286;48.098;11.590;2023-02-28T03:36:09;10.77;;;4.05;;
60432;SDS011;46286;48.098;11.590;2023-02-28T03:41:21;8.35;;;3.97;;
60432;SDS011;46286;48.098;11.590;2023-02-28T03:43:50;9.07;;;3.70;;
60432;SDS011;46286;48.098;11.590;2023-02-28T03:46:21;8.50;;;3.88;;
60432;SDS011;46286;48.098;11.590;2023-02-28T03:48:55;7.55;;;4.00;;
60432;SDS011;46286;48.098;11.590;2023-02-28T03:51:26;7.47;;;4.15;;
60432;SDS011;46286;48.098;11.590;2023-02-28T03:53:56;8.60;;;4.22;;
60432;SDS011;46286;48.098;11.590;2023-02-28T03:56:31;9.48;;;4.80;;
60432;SDS011;46286;48.098;11.590;2023-02-28T04:01:39;8.25;;;4.50;;
60432;SDS011;46286;48.098;11.590;2023-02-28T04:04:09;10.85;;;3.90;;
60432;SDS011;46286;48.098;11.590;2023-02-28T04:06:35;12.13;;;4.55;;
60432;SDS011;46286;48.098;11.590;2023-02-28T04:09:02;8.88;;;4.55;;
60432;SDS011;46286;48.098;11.590;2023-02-28T04:13:54;11.98;;;4.63;;
60432;SDS011;46286;48.098;11.590;2023-02-28T04:16:20;9.55;;;4.78;;
60432;SDS011;46286;48.098;11.590;2023-02-28T04:18:46;13.02;;;4.72;;
60432;SDS011;46286;48.098;11.590;2023-02-28T04:21:11;10.60;;;4.63;;
60432;SDS011;46286;48.098;11.590;2023-02-28T04:23:37;10.00;;;5.13;;
60432;SDS011;46286;48.098;11.590;2023-02-28T04:26:03;9.00;;;4.65;;
60432;SDS011;46286;48.098;11.590;2023-02-28T04:28:29;10.18;;;4.88;;
60432;SDS011;46286;48.098;11.590;2023-02-28T04:31:01;12.63;;;5.25;;
60432;SDS011;46286;48.098;11.590;2023-02-28T04:36:05;8.95;;;4.28;;
60432;SDS011;46286;48.098;11.590;2023-02-28T04:38:34;10.27;;;5.30;;
60432;SDS011;46286;48.098;11.590;2023-02-28T04:41:01;9.13;;;5.03;;
60432;SDS011;46286;48.098;11.590;2023-02-28T04:43:27;11.02;;;5.38;;
60432;SDS011;46286;48.098;11.590;2023-02-28T04:45:54;13.80;;;6.20;;
60432;SDS011;46286;48.098;11.590;2023-02-28T04:48:22;10.57;;;5.65;;
60432;SDS011;46286;48.098;11.590;2023-02-28T04:50:49;8.93;;;4.78;;
60432;SDS011;46286;48.098;11.590;2023-02-28T04:53:15;13.23;;;5.80;;
60432;SDS011;46286;48.098;11.590;2023-02-28T04:55:41;12.32;;;5.35;;
60432;SDS011;46286;48.098;11.590;2023-02-28T04:58:06;10.93;;;5.45;;
60432;SDS011;46286;48.098;11.590;2023-02-28T05:00:32;11.88;;;5.55;;
60432;SDS011;46286;48.098;11.590;2023-02-28T05:02:57;12.43;;;6.57;;
60432;SDS011;46286;48.098;11.590;2023-02-28T05:05:23;15.15;;;5.97;;
60432;SDS011;46286;48.098;11.590;2023-02-28T05:07:48;14.30;;;6.38;;
60432;SDS011;46286;48.098;11.590;2023-02-28T05:10:14;11.50;;;6.18;;
60432;SDS011;46286;48.098;11.590;2023-02-28T05:12:40;12.27;;;6.30;;
60432;SDS011;46286;48.098;11.590;2023-02-28T05:15:05;12.38;;;5.68;;
60432;SDS011;46286;48.098;11.590;2023-02-28T05:17:31;14.60;;;5.82;;
60432;SDS011;46286;48.098;11.590;2023-02-28T05:19:57;12.95;;;5.95;;
60432;SDS011;46286;48.098;11.590;2023-02-28T05:22:22;15.93;;;7.05;;
60432;SDS011;46286;48.098;11.590;2023-02-28T05:24:48;12.73;;;6.85;;
60432;SDS011;46286;48.098;11.590;2023-02-28T05:27:13;13.15;;;6.53;;
60432;SDS011;46286;48.098;11.590;2023-02-28T05:29:39;13.05;;;6.05;;
60432;SDS011;46286;48.098;11.590;2023-02-28T05:32:11;17.23;;;7.25;;
60432;SDS011;46286;48.098;11.590;2023-02-28T05:34:38;16.35;;;7.05;;
60432;SDS011;46286;48.098;11.590;2023-02-28T05:37:04;15.63;;;7.72;;
60432;SDS011;46286;48.098;11.590;2023-02-28T05:39:31;17.15;;;8.15;;
60432;SDS011;46286;48.098;11.590;2023-02-28T05:41:56;17.58;;;7.90;;
60432;SDS011;46286;48.098;11.590;2023-02-28T05:44:22;15.32;;;7.25;;
60432;SDS011;46286;48.098;11.590;2023-02-28T05:46:48;17.60;;;7.70;;
60432;SDS011;46286;48.098;11.590;2023-02-28T05:49:14;18.05;;;7.43;;
60432;SDS011;46286;48.098;11.590;2023-02-28T05:51:39;31.08;;;8.25;;
60432;SDS011;46286;48.098;11.590;2023-02-28T05:54:05;16.20;;;7.32;;
60432;SDS011;46286;48.098;11.590;2023-02-28T05:56:32;21.70;;;7.68;;
60432;SDS011;46286;48.098;11.590;2023-02-28T05:58:59;15.07;;;7.63;;
60432;SDS011;46286;48.098;11.590;2023-02-28T06:04:02;19.17;;;7.75;;
60432;SDS011;46286;48.098;11.590;2023-02-28T06:06:29;18.70;;;8.45;;
60432;SDS011;46286;48.098;11.590;2023-02-28T06:08:55;17.92;;;7.47;;
60432;SDS011;46286;48.098;11.590;2023-02-28T06:11:21;19.67;;;9.02;;
60432;SDS011;46286;48.098;11.590;2023-02-28T06:13:53;18.13;;;7.90;;
60432;SDS011;46286;48.098;11.590;2023-02-28T06:16:21;19.88;;;8.73;;
60432;SDS011;46286;48.098;11.590;2023-02-28T06:18:47;18.20;;;8.95;;
60432;SDS011;46286;48.098;11.590;2023-02-28T06:21:12;22.10;;;10.23;;
60432;SDS011;46286;48.098;11.590;2023-02-28T06:23:38;19.65;;;8.48;;
60432;SDS011;46286;48.098;11.590;2023-02-28T06:26:04;16.48;;;8.63;;
60432;SDS011;46286;48.098;11.590;2023-02-28T06:28:30;19.10;;;10.18;;
60432;SDS011;46286;48.098;11.590;2023-02-28T06:30:56;21.27;;;9.05;;
60432;SDS011;46286;48.098;11.590;2023-02-28T06:33:21;19.42;;;8.80;;
60432;SDS011;46286;48.098;11.590;2023-02-28T06:35:49;15.82;;;8.32;;
60432;SDS011;46286;48.098;11.590;2023-02-28T06:38:15;19.00;;;8.95;;
60432;SDS011;46286;48.098;11.590;2023-02-28T06:40:41;18.75;;;9.38;;
60432;SDS011;46286;48.098;11.590;2023-02-28T06:43:07;20.27;;;9.23;;
60432;SDS011;46286;48.098;11.590;2023-02-28T06:45:32;19.63;;;9.35;;
60432;SDS011;46286;48.098;11.590;2023-02-28T06:47:58;17.52;;;9.13;;
60432;SDS011;46286;48.098;11.590;2023-02-28T06:50:25;22.75;;;10.60;;
60432;SDS011;46286;48.098;11.590;2023-02-28T06:52:52;17.55;;;9.63;;
60432;SDS011;46286;48.098;11.590;2023-02-28T06:55:19;25.40;;;9.85;;
60432;SDS011;46286;48.098;11.590;2023-02-28T06:57:45;21.35;;;9.07;;
60432;SDS011;46286;48.098;11.590;2023-02-28T07:00:10;18.27;;;8.93;;
60432;SDS011;46286;48.098;11.590;2023-02-28T07:02:37;19.23;;;9.23;;
60432;SDS011;46286;48.098;11.590;2023-02-28T07:05:03;16.83;;;8.73;;
60432;SDS011;46286;48.098;11.590;2023-02-28T07:07:30;58.42;;;9.88;;
60432;SDS011;46286;48.098;11.590;2023-02-28T07:09:56;16.58;;;9.13;;
60432;SDS011;46286;48.098;11.590;2023-02-28T07:12:21;23.63;;;10.05;;
60432;SDS011;46286;48.098;11.590;2023-02-28T07:14:47;18.05;;;8.90;;
60432;SDS011;46286;48.098;11.590;2023-02-28T07:17:12;20.70;;;9.38;;
60432;SDS011;46286;48.098;11.590;2023-02-28T07:19:38;21.10;;;9.15;;
60432;SDS011;46286;48.098;11.590;2023-02-28T07:22:04;21.00;;;9.23;;
60432;SDS011;46286;48.098;11.590;2023-02-28T07:24:30;18.63;;;9.23;;
60432;SDS011;46286;48.098;11.590;2023-02-28T07:26:56;18.77;;;9.18;;
60432;SDS011;46286;48.098;11.590;2023-02-28T07:29:22;19.73;;;9.20;;
60432;SDS011;46286;48.098;11.590;2023-02-28T07:31:47;20.30;;;9.50;;
60432;SDS011;46286;48.098;11.590;2023-02-28T07:34:13;19.40;;;9.25;;
60432;SDS011;46286;48.098;11.590;2023-02-28T07:36:39;21.00;;;9.30;;
60432;SDS011;46286;48.098;11.590;2023-02-28T07:39:05;16.98;;;8.52;;
60432;SDS011;46286;48.098;11.590;2023-02-28T07:41:30;20.05;;;9.88;;
60432;SDS011;46286;48.098;11.590;2023-02-28T07:43:59;18.50;;;8.98;;
60432;SDS011;46286;48.098;11.590;2023-02-28T07:46:25;21.90;;;9.55;;
60432;SDS011;46286;48.098;11.590;2023-02-28T07:48:51;25.67;;;10.00;;
60432;SDS011;46286;48.098;11.590;2023-02-28T07:51:17;19.42;;;9.55;;
60432;SDS011;46286;48.098;11.590;2023-02-28T07:53:44;19.27;;;10.35;;
60432;SDS011;46286;48.098;11.590;2023-02-28T07:56:09;18.65;;;9.85;;
60432;SDS011;46286;48.098;11.590;2023-02-28T07:58:36;21.40;;;10.07;;
60432;SDS011;46286;48.098;11.590;2023-02-28T08:01:08;16.52;;;8.50;;
60432;SDS011;46286;48.098;11.590;2023-02-28T08:03:34;22.27;;;10.27;;
60432;SDS011;46286;48.098;11.590;2023-02-28T08:06:01;20.50;;;9.57;;
60432;SDS011;46286;48.098;11.590;2023-02-28T08:08:28;18.55;;;8.82;;
60432;SDS011;46286;48.098;11.590;2023-02-28T08:11:00;16.98;;;9.13;;
60432;SDS011;46286;48.098;11.590;2023-02-28T08:13:27;22.88;;;10.77;;
60432;SDS011;46286;48.098;11.590;2023-02-28T08:15:53;20.02;;;10.43;;
60432;SDS011;46286;48.098;11.590;2023-02-28T08:18:20;21.45;;;10.45;;
60432;SDS011;46286;48.098;11.590;2023-02-28T08:20:46;23.17;;;10.15;;
60432;SDS011;46286;48.098;11.590;2023-02-28T08:23:12;20.63;;;10.57;;
60432;SDS011;46286;48.098;11.590;2023-02-28T08:25:38;22.45;;;9.68;;
60432;SDS011;46286;48.098;11.590;2023-02-28T08:28:03;20.20;;;10.15;;
60432;SDS011;46286;48.098;11.590;2023-02-28T08:30:29;21.58;;;10.88;;
60432;SDS011;46286;48.098;11.590;2023-02-28T08:32:55;22.70;;;10.63;;
60432;SDS011;46286;48.098;11.590;2023-02-28T08:35:20;21.65;;;10.50;;
60432;SDS011;46286;48.098;11.590;2023-02-28T08:37:47;21.10;;;10.27;;
60432;SDS011;46286;48.098;11.590;2023-02-28T08:40:14;18.38;;;9.90;;
60432;SDS011;46286;48.098;11.590;2023-02-28T08:42:46;20.85;;;10.20;;
60432;SDS011;46286;48.098;11.590;2023-02-28T08:45:15;23.30;;;10.55;;
60432;SDS011;46286;48.098;11.590;2023-02-28T08:47:41;19.48;;;10.30;;
60432;SDS011;46286;48.098;11.590;2023-02-28T08:50:06;18.98;;;10.57;;
60432;SDS011;46286;48.098;11.590;2023-02-28T08:52:33;21.58;;;10.38;;
60432;SDS011;46286;48.098;11.590;2023-02-28T08:54:59;24.23;;;11.65;;
60432;SDS011;46286;48.098;11.590;2023-02-28T08:57:25;20.92;;;10.95;;
60432;SDS011;46286;48.098;11.590;2023-02-28T08:59:51;23.23;;;10.52;;
60432;SDS011;46286;48.098;11.590;2023-02-28T09:02:17;21.73;;;10.07;;
60432;SDS011;46286;48.098;11.590;2023-02-28T09:04:43;29.50;;;11.60;;
60432;SDS011;46286;48.098;11.590;2023-02-28T09:07:11;22.95;;;11.20;;
60432;SDS011;46286;48.098;11.590;2023-02-28T09:09:36;21.08;;;10.82;;
60432;SDS011;46286;48.098;11.590;2023-02-28T09:12:02;24.00;;;10.63;;
60432;SDS011;46286;48.098;11.590;2023-02-28T09:14:28;20.55;;;10.70;;
60432;SDS011;46286;48.098;11.590;2023-02-28T09:16:54;19.20;;;10.25;;
60432;SDS011;46286;48.098;11.590;2023-02-28T09:19:20;19.02;;;10.40;;
60432;SDS011;46286;48.098;11.590;2023-02-28T09:21:45;23.88;;;10.23;;
60432;SDS011;46286;48.098;11.590;2023-02-28T09:24:11;21.63;;;10.82;;
60432;SDS011;46286;48.098;11.590;2023-02-28T09:26:39;20.65;;;10.98;;
60432;SDS011;46286;48.098;11.590;2023-02-28T09:29:05;20.10;;;11.45;;
60432;SDS011;46286;48.098;11.590;2023-02-28T09:31:31;22.33;;;11.00;;
60432;SDS011;46286;48.098;11.590;2023-02-28T09:33:58;21.30;;;10.60;;
60432;SDS011;46286;48.098;11.590;2023-02-28T09:36:25;20.08;;;10.43;;
60432;SDS011;46286;48.098;11.590;2023-02-28T09:38:51;21.75;;;10.98;;
60432;SDS011;46286;48.098;11.590;2023-02-28T09:41:25;22.63;;;11.30;;
60432;SDS011;46286;48.098;11.590;2023-02-28T09:43:56;24.45;;;11.70;;
60432;SDS011;46286;48.098;11.590;2023-02-28T09:48:57;23.67;;;10.95;;
60432;SDS011;46286;48.098;11.590;2023-02-28T09:52:02;20.00;;;11.00;;
60432;SDS011;46286;48.098;11.590;2023-02-28T09:54:24;19.27;;;9.73;;
60432;SDS011;46286;48.098;11.590;2023-02-28T09:56:57;19.85;;;11.05;;
60432;SDS011;46286;48.098;11.590;2023-02-28T10:07:18;21.63;;;10.38;;
60432;SDS011;46286;48.098;11.590;2023-02-28T10:09:56;20.77;;;10.32;;
60432;SDS011;46286;48.098;11.590;2023-02-28T10:12:27;25.58;;;10.82;;
60432;SDS011;46286;48.098;11.590;2023-02-28T10:14:54;22.42;;;11.30;;
60432;SDS011;46286;48.098;11.590;2023-02-28T10:17:25;21.52;;;11.25;;
60432;SDS011;46286;48.098;11.590;2023-02-28T10:22:34;19.70;;;10.63;;
60432;SDS011;46286;48.098;11.590;2023-02-28T10:25:18;22.92;;;11.38;;
60432;SDS011;46286;48.098;11.590;2023-02-28T10:27:49;16.83;;;9.35;;
60432;SDS011;46286;48.098;11.590;2023-02-28T10:30:18;23.27;;;11.45;;
60432;SDS011;46286;48.098;11.590;2023-02-28T10:32:47;21.25;;;10.35;;
60432;SDS011;46286;48.098;11.590;2023-02-28T10:37:54;21.52;;;10.50;;
60432;SDS011;46286;48.098;11.590;2023-02-28T10:43:03;21.20;;;10.48;;
60432;SDS011;46286;48.098;11.590;2023-02-28T10:45:32;19.98;;;10.18;;
60432;SDS011;46286;48.098;11.590;2023-02-28T10:48:02;19.58;;;10.52;;
60432;SDS011;46286;48.098;11.590;2023-02-28T10:50:32;19.52;;;10.05;;
60432;SDS011;46286;48.098;11.590;2023-02-28T10:53:10;19.45;;;10.35;;
60432;SDS011;46286;48.098;11.590;2023-02-28T10:55:41;20.10;;;10.98;;
60432;SDS011;46286;48.098;11.590;2023-02-28T10:58:20;21.90;;;11.15;;
60432;SDS011;46286;48.098;11.590;2023-02-28T11:00:48;23.48;;;10.60;;
60432;SDS011;46286;48.098;11.590;2023-02-28T11:03:24;17.92;;;9.68;;
60432;SDS011;46286;48.098;11.590;2023-02-28T11:05:50;19.80;;;10.82;;
60432;SDS011;46286;48.098;11.590;2023-02-28T11:08:16;20.63;;;11.23;;
60432;SDS011;46286;48.098;11.590;2023-02-28T11:10:46;22.35;;;10.48;;
60432;SDS011;46286;48.098;11.590;2023-02-28T11:13:17;19.92;;;10.32;;
60432;SDS011;46286;48.098;11.590;2023-02-28T11:15:53;29.40;;;12.32;;
60432;SDS011;46286;48.098;11.590;2023-02-28T11:18:21;19.85;;;10.50;;
60432;SDS011;46286;48.098;11.590;2023-02-28T11:20:52;22.27;;;11.32;;
60432;SDS011;46286;48.098;11.590;2023-02-28T11:23:21;19.35;;;10.18;;
60432;SDS011;46286;48.098;11.590;2023-02-28T11:25:51;20.98;;;11.50;;
60432;SDS011;46286;48.098;11.590;2023-02-28T11:28:24;21.80;;;10.77;;
60432;SDS011;46286;48.098;11.590;2023-02-28T11:33:31;20.67;;;10.77;;
60432;SDS011;46286;48.098;11.590;2023-02-28T11:36:18;24.45;;;11.77;;
60432;SDS011;46286;48.098;11.590;2023-02-28T11:39:04;18.10;;;10.07;;
60432;SDS011;46286;48.098;11.590;2023-02-28T11:41:44;21.13;;;11.38;;
60432;SDS011;46286;48.098;11.590;2023-02-28T11:50:05;25.73;;;11.00;;
60432;SDS011;46286;48.098;11.590;2023-02-28T11:55:26;23.00;;;11.52;;
60432;SDS011;46286;48.098;11.590;2023-02-28T12:01:14;20.73;;;11.80;;
60432;SDS011;46286;48.098;11.590;2023-02-28T12:07:00;25.83;;;11.98;;
60432;SDS011;46286;48.098;11.590;2023-02-28T12:12:23;25.75;;;11.50;;
60432;SDS011;46286;48.098;11.590;2023-02-28T12:17:52;21.73;;;11.02;;
60432;SDS011;46286;48.098;11.590;2023-02-28T12:22:52;22.70;;;11.13;;
60432;SDS011;46286;48.098;11.590;2023-02-28T12:28:14;24.80;;;10.38;;
60432;SDS011;46286;48.098;11.590;2023-02-28T12:30:49;21.70;;;10.90;;
60432;SDS011;46286;48.098;11.590;2023-02-28T12:33:22;20.55;;;10.82;;
60432;SDS011;46286;48.098;11.590;2023-02-28T12:38:26;18.75;;;10.45;;
60432;SDS011;46286;48.098;11.590;2023-02-28T12:41:05;17.50;;;10.77;;
60432;SDS011;46286;48.098;11.590;2023-02-28T12:43:44;18.58;;;10.75;;
60432;SDS011;46286;48.098;11.590;2023-02-28T12:46:18;14.07;;;7.90;;
60432;SDS011;46286;48.098;11.590;2023-02-28T12:48:52;18.13;;;10.50;;
60432;SDS011;46286;48.098;11.590;2023-02-28T12:51:21;15.23;;;9.73;;
60432;SDS011;46286;48.098;11.590;2023-02-28T12:56:38;18.73;;;10.37;;
60432;SDS011;46286;48.098;11.590;2023-02-28T13:08:04;18.55;;;10.70;;
60432;SDS011;46286;48.098;11.590;2023-02-28T13:10:52;14.82;;;9.32;;
60432;SDS011;46286;48.098;11.590;2023-02-28T13:13:30;21.90;;;9.70;;
60432;SDS011;46286;48.098;11.590;2023-02-28T13:18:44;17.05;;;10.32;;
60432;SDS011;46286;48.098;11.590;2023-02-28T13:21:28;18.15;;;10.27;;
60432;SDS011;46286;48.098;11.590;2023-02-28T13:28:59;20.30;;;10.43;;
60432;SDS011;46286;48.098;11.590;2023-02-28T13:31:27;17.05;;;10.10;;
60432;SDS011;46286;48.098;11.590;2023-02-28T13:36:30;24.73;;;10.70;;
60432;SDS011;46286;48.098;11.590;2023-02-28T13:38:58;21.25;;;10.68;;
60432;SDS011;46286;48.098;11.590;2023-02-28T13:44:06;17.45;;;10.02;;
60432;SDS011;46286;48.098;11.590;2023-02-28T13:46:33;18.58;;;10.52;;
60432;SDS011;46286;48.098;11.590;2023-02-28T13:51:49;20.65;;;11.65;;
60432;SDS011;46286;48.098;11.590;2023-02-28T13:54:34;21.85;;;10.65;;
60432;SDS011;46286;48.098;11.590;2023-02-28T13:57:15;18.20;;;10.60;;
60432;SDS011;46286;48.098;11.590;2023-02-28T14:05:37;21.58;;;10.73;;
60432;SDS011;46286;48.098;11.590;2023-02-28T14:10:49;21.38;;;11.65;;
60432;SDS011;46286;48.098;11.590;2023-02-28T14:16:09;15.98;;;9.27;;
60432;SDS011;46286;48.098;11.590;2023-02-28T14:18:37;20.05;;;10.77;;
60432;SDS011;46286;48.098;11.590;2023-02-28T14:21:09;28.02;;;11.02;;
60432;SDS011;46286;48.098;11.590;2023-02-28T14:29:43;19.95;;;10.50;;
60432;SDS011;46286;48.098;11.590;2023-02-28T14:34:55;17.95;;;9.95;;
60432;SDS011;46286;48.098;11.590;2023-02-28T14:37:37;16.63;;;9.45;;
60432;SDS011;46286;48.098;11.590;2023-02-28T14:40:11;21.02;;;10.43;;
60432;SDS011;46286;48.098;11.590;2023-02-28T14:42:45;17.92;;;9.45;;
60432;SDS011;46286;48.098;11.590;2023-02-28T14:45:17;20.10;;;10.43;;
60432;SDS011;46286;48.098;11.590;2023-02-28T14:47:46;16.92;;;9.52;;
60432;SDS011;46286;48.098;11.590;2023-02-28T14:50:18;17.65;;;9.77;;
60432;SDS011;46286;48.098;11.590;2023-02-28T14:52:45;19.60;;;10.30;;
60432;SDS011;46286;48.098;11.590;2023-02-28T14:55:17;22.15;;;10.10;;
60432;SDS011;46286;48.098;11.590;2023-02-28T14:57:51;19.88;;;10.93;;
60432;SDS011;46286;48.098;11.590;2023-02-28T15:02:58;20.00;;;9.80;;
60432;SDS011;46286;48.098;11.590;2023-02-28T15:05:30;17.75;;;9.70;;
60432;SDS011;46286;48.098;11.590;2023-02-28T15:08:01;16.30;;;10.25;;
60432;SDS011;46286;48.098;11.590;2023-02-28T15:10:32;18.58;;;10.15;;
60432;SDS011;46286;48.098;11.590;2023-02-28T15:13:00;30.40;;;11.60;;
60432;SDS011;46286;48.098;11.590;2023-02-28T15:15:45;19.92;;;10.90;;
60432;SDS011;46286;48.098;11.590;2023-02-28T15:21:05;20.40;;;10.48;;
60432;SDS011;46286;48.098;11.590;2023-02-28T15:23:36;19.42;;;9.50;;
60432;SDS011;46286;48.098;11.590;2023-02-28T15:26:03;17.83;;;10.00;;
60432;SDS011;46286;48.098;11.590;2023-02-28T15:28:29;16.08;;;8.90;;
60432;SDS011;46286;48.098;11.590;2023-02-28T15:30:57;16.15;;;8.45;;
60432;SDS011;46286;48.098;11.590;2023-02-28T15:33:27;16.88;;;9.10;;
60432;SDS011;46286;48.098;11.590;2023-02-28T15:36:10;17.33;;;9.13;;
60432;SDS011;46286;48.098;11.590;2023-02-28T15:38:38;15.93;;;8.88;;
60432;SDS011;46286;48.098;11.590;2023-02-28T15:41:04;16.42;;;8.70;;
60432;SDS011;46286;48.098;11.590;2023-02-28T15:43:37;19.70;;;8.98;;
60432;SDS011;46286;48.098;11.590;2023-02-28T15:48:42;16.77;;;8.93;;
60432;SDS011;46286;48.098;11.590;2023-02-28T15:56:21;17.13;;;7.88;;
60432;SDS011;46286;48.098;11.590;2023-02-28T15:58:56;20.63;;;9.13;;
60432;SDS011;46286;48.098;11.590;2023-02-28T16:01:25;20.85;;;9.43;;
60432;SDS011;46286;48.098;11.590;2023-02-28T16:03:54;17.55;;;8.43;;
60432;SDS011;46286;48.098;11.590;2023-02-28T16:06:28;17.80;;;9.25;;
60432;SDS011;46286;48.098;11.590;2023-02-28T16:08:58;20.42;;;9.60;;
60432;SDS011;46286;48.098;11.590;2023-02-28T16:11:23;17.70;;;8.82;;
60432;SDS011;46286;48.098;11.590;2023-02-28T16:13:49;16.55;;;8.77;;
60432;SDS011;46286;48.098;11.590;2023-02-28T16:16:17;16.77;;;9.20;;
60432;SDS011;46286;48.098;11.590;2023-02-28T16:18:48;15.57;;;8.80;;
60432;SDS011;46286;48.098;11.590;2023-02-28T16:21:13;22.45;;;9.93;;
60432;SDS011;46286;48.098;11.590;2023-02-28T16:23:39;16.30;;;9.10;;
60432;SDS011;46286;48.098;11.590;2023-02-28T16:26:05;16.80;;;9.02;;
60432;SDS011;46286;48.098;11.590;2023-02-28T16:28:35;17.58;;;9.13;;
60432;SDS011;46286;48.098;11.590;2023-02-28T16:31:03;18.90;;;9.65;;
60432;SDS011;46286;48.098;11.590;2023-02-28T16:33:31;19.33;;;8.82;;
60432;SDS011;46286;48.098;11.590;2023-02-28T16:35:57;21.98;;;9.52;;
60432;SDS011;46286;48.098;11.590;2023-02-28T16:38:24;19.65;;;9.85;;
60432;SDS011;46286;48.098;11.590;2023-02-28T16:40:50;20.15;;;9.57;;
60432;SDS011;46286;48.098;11.590;2023-02-28T16:43:20;24.83;;;10.93;;
60432;SDS011;46286;48.098;11.590;2023-02-28T16:45:48;18.50;;;9.65;;
60432;SDS011;46286;48.098;11.590;2023-02-28T16:48:20;20.70;;;10.00;;
60432;SDS011;46286;48.098;11.590;2023-02-28T16:50:45;17.17;;;9.43;;
60432;SDS011;46286;48.098;11.590;2023-02-28T16:53:11;21.10;;;10.30;;
60432;SDS011;46286;48.098;11.590;2023-02-28T16:55:37;21.05;;;10.00;;
60432;SDS011;46286;48.098;11.590;2023-02-28T16:58:02;21.58;;;10.25;;
60432;SDS011;46286;48.098;11.590;2023-02-28T17:00:29;21.35;;;9.70;;
60432;SDS011;46286;48.098;11.590;2023-02-28T17:02:56;17.60;;;9.05;;